Terminal Aerodrome Forecast
Issued by NWS Cleveland, OH

Home | Current Version | Previous Version | Text Only | Print | Product List | Glossary On
Versions: 1 2 3 4 5 6 7 8 9 10 11 12 13
000
FTUS41 KCLE 301700
TAFMFD
TAF
KMFD 301737Z 3018/3118 32004KT P6SM SCT025 BKN035
     FM310000 VRB03KT P6SM SCT040 OVC100
     FM310600 18003KT P6SM SCT020 OVC040
     FM311500 24012KT 5SM -SHRA OVC025=

USA.gov is the U.S. government's official web portal to all federal, state and local government web resources and services.